sensor_id;sensor_type;location;lat;lon;timestamp;P1;durP1;ratioP1;P2;durP2;ratioP2
27231;SDS011;61835;50.196;6.454;2022-08-19T00:01:45;3.65;;;2.50;;
27231;SDS011;61835;50.196;6.454;2022-08-19T00:04:13;6.43;;;2.70;;
27231;SDS011;61835;50.196;6.454;2022-08-19T00:06:41;4.00;;;2.03;;
27231;SDS011;61835;50.196;6.454;2022-08-19T00:09:09;2.65;;;2.30;;
27231;SDS011;61835;50.196;6.454;2022-08-19T00:11:36;3.30;;;2.13;;
27231;SDS011;61835;50.196;6.454;2022-08-19T00:14:03;3.42;;;2.20;;
27231;SDS011;61835;50.196;6.454;2022-08-19T00:16:29;4.38;;;2.15;;
27231;SDS011;61835;50.196;6.454;2022-08-19T00:18:54;3.42;;;2.05;;
27231;SDS011;61835;50.196;6.454;2022-08-19T00:21:20;1.75;;;1.45;;
27231;SDS011;61835;50.196;6.454;2022-08-19T00:23:46;2.25;;;1.77;;
27231;SDS011;61835;50.196;6.454;2022-08-19T00:26:11;2.25;;;1.67;;
27231;SDS011;61835;50.196;6.454;2022-08-19T00:28:37;3.10;;;2.55;;
27231;SDS011;61835;50.196;6.454;2022-08-19T00:31:03;3.30;;;2.30;;
27231;SDS011;61835;50.196;6.454;2022-08-19T00:33:30;2.70;;;2.20;;
27231;SDS011;61835;50.196;6.454;2022-08-19T00:35:59;3.42;;;2.20;;
27231;SDS011;61835;50.196;6.454;2022-08-19T00:38:25;2.65;;;1.17;;
27231;SDS011;61835;50.196;6.454;2022-08-19T00:40:51;3.75;;;2.72;;
27231;SDS011;61835;50.196;6.454;2022-08-19T00:43:20;3.67;;;2.67;;
27231;SDS011;61835;50.196;6.454;2022-08-19T00:45:48;4.32;;;1.77;;
27231;SDS011;61835;50.196;6.454;2022-08-19T00:48:17;7.20;;;2.50;;
27231;SDS011;61835;50.196;6.454;2022-08-19T00:50:44;5.15;;;3.40;;
27231;SDS011;61835;50.196;6.454;2022-08-19T00:53:14;4.30;;;2.20;;
27231;SDS011;61835;50.196;6.454;2022-08-19T00:55:45;3.67;;;2.45;;
27231;SDS011;61835;50.196;6.454;2022-08-19T00:58:14;2.45;;;2.17;;
27231;SDS011;61835;50.196;6.454;2022-08-19T01:00:42;6.65;;;2.08;;
27231;SDS011;61835;50.196;6.454;2022-08-19T01:03:10;6.22;;;3.15;;
27231;SDS011;61835;50.196;6.454;2022-08-19T01:05:38;4.88;;;3.50;;
27231;SDS011;61835;50.196;6.454;2022-08-19T01:08:06;5.95;;;3.60;;
27231;SDS011;61835;50.196;6.454;2022-08-19T01:10:41;4.32;;;2.05;;
27231;SDS011;61835;50.196;6.454;2022-08-19T01:13:10;2.30;;;2.08;;
27231;SDS011;61835;50.196;6.454;2022-08-19T01:15:45;3.25;;;2.95;;
27231;SDS011;61835;50.196;6.454;2022-08-19T01:18:15;4.90;;;4.00;;
27231;SDS011;61835;50.196;6.454;2022-08-19T01:20:43;7.85;;;4.50;;
27231;SDS011;61835;50.196;6.454;2022-08-19T01:23:09;7.85;;;3.75;;
27231;SDS011;61835;50.196;6.454;2022-08-19T01:28:20;3.97;;;2.60;;
27231;SDS011;61835;50.196;6.454;2022-08-19T01:30:50;4.78;;;2.90;;
27231;SDS011;61835;50.196;6.454;2022-08-19T01:33:17;4.78;;;3.80;;
27231;SDS011;61835;50.196;6.454;2022-08-19T01:35:44;6.95;;;3.45;;
27231;SDS011;61835;50.196;6.454;2022-08-19T01:38:18;3.00;;;2.70;;
27231;SDS011;61835;50.196;6.454;2022-08-19T01:40:46;6.82;;;3.08;;
27231;SDS011;61835;50.196;6.454;2022-08-19T01:43:11;4.13;;;2.95;;
27231;SDS011;61835;50.196;6.454;2022-08-19T01:45:37;6.30;;;3.00;;
27231;SDS011;61835;50.196;6.454;2022-08-19T01:48:06;4.55;;;3.33;;
27231;SDS011;61835;50.196;6.454;2022-08-19T01:50:32;4.43;;;2.55;;
27231;SDS011;61835;50.196;6.454;2022-08-19T01:52:59;4.30;;;2.60;;
27231;SDS011;61835;50.196;6.454;2022-08-19T01:55:26;4.18;;;2.88;;
27231;SDS011;61835;50.196;6.454;2022-08-19T01:57:53;2.00;;;1.80;;
27231;SDS011;61835;50.196;6.454;2022-08-19T02:00:23;3.72;;;2.33;;
27231;SDS011;61835;50.196;6.454;2022-08-19T02:02:50;2.95;;;2.42;;
27231;SDS011;61835;50.196;6.454;2022-08-19T02:05:16;7.22;;;2.85;;
27231;SDS011;61835;50.196;6.454;2022-08-19T02:07:43;2.88;;;2.38;;
27231;SDS011;61835;50.196;6.454;2022-08-19T02:10:12;4.93;;;3.03;;
27231;SDS011;61835;50.196;6.454;2022-08-19T02:12:42;4.13;;;2.63;;
27231;SDS011;61835;50.196;6.454;2022-08-19T02:15:08;4.78;;;1.85;;
27231;SDS011;61835;50.196;6.454;2022-08-19T02:17:34;2.08;;;1.88;;
27231;SDS011;61835;50.196;6.454;2022-08-19T02:20:01;2.90;;;2.20;;
27231;SDS011;61835;50.196;6.454;2022-08-19T02:22:26;6.47;;;3.13;;
27231;SDS011;61835;50.196;6.454;2022-08-19T02:24:52;4.28;;;2.67;;
27231;SDS011;61835;50.196;6.454;2022-08-19T02:27:19;5.22;;;3.10;;
27231;SDS011;61835;50.196;6.454;2022-08-19T02:29:46;6.95;;;3.40;;
27231;SDS011;61835;50.196;6.454;2022-08-19T02:32:13;5.07;;;3.70;;
27231;SDS011;61835;50.196;6.454;2022-08-19T02:34:38;5.15;;;3.15;;
27231;SDS011;61835;50.196;6.454;2022-08-19T02:37:04;5.43;;;3.85;;
27231;SDS011;61835;50.196;6.454;2022-08-19T02:39:29;5.70;;;3.75;;
27231;SDS011;61835;50.196;6.454;2022-08-19T02:41:55;6.40;;;3.47;;
27231;SDS011;61835;50.196;6.454;2022-08-19T02:44:21;2.80;;;2.47;;
27231;SDS011;61835;50.196;6.454;2022-08-19T02:46:46;3.40;;;2.08;;
27231;SDS011;61835;50.196;6.454;2022-08-19T02:49:13;7.88;;;3.67;;
27231;SDS011;61835;50.196;6.454;2022-08-19T02:51:41;4.88;;;3.38;;
27231;SDS011;61835;50.196;6.454;2022-08-19T02:54:08;2.35;;;1.88;;
27231;SDS011;61835;50.196;6.454;2022-08-19T02:56:36;4.80;;;2.88;;
27231;SDS011;61835;50.196;6.454;2022-08-19T02:59:03;4.88;;;3.05;;
27231;SDS011;61835;50.196;6.454;2022-08-19T03:01:35;8.35;;;2.92;;
27231;SDS011;61835;50.196;6.454;2022-08-19T03:04:02;5.30;;;3.85;;
27231;SDS011;61835;50.196;6.454;2022-08-19T03:06:29;4.18;;;3.17;;
27231;SDS011;61835;50.196;6.454;2022-08-19T03:08:55;4.38;;;2.30;;
27231;SDS011;61835;50.196;6.454;2022-08-19T03:11:23;4.32;;;2.97;;
27231;SDS011;61835;50.196;6.454;2022-08-19T03:13:51;3.97;;;3.58;;
27231;SDS011;61835;50.196;6.454;2022-08-19T03:16:19;5.35;;;2.33;;
27231;SDS011;61835;50.196;6.454;2022-08-19T03:18:47;7.22;;;4.20;;
27231;SDS011;61835;50.196;6.454;2022-08-19T03:21:20;3.97;;;2.90;;
27231;SDS011;61835;50.196;6.454;2022-08-19T03:23:48;4.07;;;3.10;;
27231;SDS011;61835;50.196;6.454;2022-08-19T03:26:14;3.22;;;2.83;;
27231;SDS011;61835;50.196;6.454;2022-08-19T03:28:40;5.07;;;3.17;;
27231;SDS011;61835;50.196;6.454;2022-08-19T03:31:11;3.97;;;3.60;;
27231;SDS011;61835;50.196;6.454;2022-08-19T03:33:39;6.45;;;4.05;;
27231;SDS011;61835;50.196;6.454;2022-08-19T03:36:18;10.85;;;4.63;;
27231;SDS011;61835;50.196;6.454;2022-08-19T03:38:49;4.75;;;3.55;;
27231;SDS011;61835;50.196;6.454;2022-08-19T03:41:18;4.05;;;3.30;;
27231;SDS011;61835;50.196;6.454;2022-08-19T03:43:45;5.82;;;3.30;;
27231;SDS011;61835;50.196;6.454;2022-08-19T03:46:32;4.32;;;3.70;;
27231;SDS011;61835;50.196;6.454;2022-08-19T03:48:59;3.25;;;2.90;;
27231;SDS011;61835;50.196;6.454;2022-08-19T03:51:32;9.40;;;4.13;;
27231;SDS011;61835;50.196;6.454;2022-08-19T03:54:00;4.72;;;3.42;;
27231;SDS011;61835;50.196;6.454;2022-08-19T03:56:28;5.55;;;3.05;;
27231;SDS011;61835;50.196;6.454;2022-08-19T03:58:57;2.95;;;2.33;;
27231;SDS011;61835;50.196;6.454;2022-08-19T04:01:26;6.15;;;2.83;;
27231;SDS011;61835;50.196;6.454;2022-08-19T04:03:53;4.55;;;3.00;;
27231;SDS011;61835;50.196;6.454;2022-08-19T04:06:38;3.38;;;3.08;;
27231;SDS011;61835;50.196;6.454;2022-08-19T04:09:07;9.20;;;4.47;;
27231;SDS011;61835;50.196;6.454;2022-08-19T04:11:35;5.43;;;3.22;;
27231;SDS011;61835;50.196;6.454;2022-08-19T04:14:09;5.05;;;3.50;;
27231;SDS011;61835;50.196;6.454;2022-08-19T04:16:35;3.25;;;2.97;;
27231;SDS011;61835;50.196;6.454;2022-08-19T04:19:03;3.15;;;2.83;;
27231;SDS011;61835;50.196;6.454;2022-08-19T04:21:30;3.03;;;2.05;;
27231;SDS011;61835;50.196;6.454;2022-08-19T04:23:56;4.85;;;2.45;;
27231;SDS011;61835;50.196;6.454;2022-08-19T04:26:24;4.15;;;2.47;;
27231;SDS011;61835;50.196;6.454;2022-08-19T04:28:57;6.03;;;3.67;;
27231;SDS011;61835;50.196;6.454;2022-08-19T04:31:24;3.30;;;2.92;;
27231;SDS011;61835;50.196;6.454;2022-08-19T04:33:52;3.17;;;2.88;;
27231;SDS011;61835;50.196;6.454;2022-08-19T04:36:23;9.43;;;4.18;;
27231;SDS011;61835;50.196;6.454;2022-08-19T04:38:56;8.98;;;4.03;;
27231;SDS011;61835;50.196;6.454;2022-08-19T04:41:23;4.78;;;3.55;;
27231;SDS011;61835;50.196;6.454;2022-08-19T04:44:08;3.92;;;3.08;;
27231;SDS011;61835;50.196;6.454;2022-08-19T04:46:34;6.60;;;3.53;;
27231;SDS011;61835;50.196;6.454;2022-08-19T04:49:00;6.10;;;3.95;;
27231;SDS011;61835;50.196;6.454;2022-08-19T04:51:26;6.72;;;3.88;;
27231;SDS011;61835;50.196;6.454;2022-08-19T04:53:53;7.03;;;4.13;;
27231;SDS011;61835;50.196;6.454;2022-08-19T04:56:19;5.22;;;3.80;;
27231;SDS011;61835;50.196;6.454;2022-08-19T04:58:47;7.50;;;4.40;;
27231;SDS011;61835;50.196;6.454;2022-08-19T05:01:14;4.90;;;3.45;;
27231;SDS011;61835;50.196;6.454;2022-08-19T05:03:43;4.55;;;3.38;;
27231;SDS011;61835;50.196;6.454;2022-08-19T05:06:11;8.80;;;4.78;;
27231;SDS011;61835;50.196;6.454;2022-08-19T05:08:39;4.07;;;3.20;;
27231;SDS011;61835;50.196;6.454;2022-08-19T05:11:30;4.25;;;2.63;;
27231;SDS011;61835;50.196;6.454;2022-08-19T05:13:56;2.72;;;2.15;;
27231;SDS011;61835;50.196;6.454;2022-08-19T05:16:22;17.52;;;3.35;;
27231;SDS011;61835;50.196;6.454;2022-08-19T05:18:49;3.92;;;3.03;;
27231;SDS011;61835;50.196;6.454;2022-08-19T05:21:33;3.28;;;2.67;;
27231;SDS011;61835;50.196;6.454;2022-08-19T05:24:18;3.83;;;2.58;;
27231;SDS011;61835;50.196;6.454;2022-08-19T05:26:45;3.13;;;2.65;;
27231;SDS011;61835;50.196;6.454;2022-08-19T05:29:13;5.50;;;3.38;;
27231;SDS011;61835;50.196;6.454;2022-08-19T05:31:40;3.53;;;2.30;;
27231;SDS011;61835;50.196;6.454;2022-08-19T05:34:06;5.03;;;2.83;;
27231;SDS011;61835;50.196;6.454;2022-08-19T05:36:36;4.53;;;2.60;;
27231;SDS011;61835;50.196;6.454;2022-08-19T05:39:09;7.50;;;3.50;;
27231;SDS011;61835;50.196;6.454;2022-08-19T05:41:37;5.28;;;3.60;;
27231;SDS011;61835;50.196;6.454;2022-08-19T05:44:07;9.00;;;4.93;;
27231;SDS011;61835;50.196;6.454;2022-08-19T05:46:34;7.28;;;5.15;;
27231;SDS011;61835;50.196;6.454;2022-08-19T05:49:00;5.13;;;4.38;;
27231;SDS011;61835;50.196;6.454;2022-08-19T05:51:25;8.15;;;4.15;;
27231;SDS011;61835;50.196;6.454;2022-08-19T05:53:51;4.70;;;3.80;;
27231;SDS011;61835;50.196;6.454;2022-08-19T05:56:17;5.82;;;4.13;;
27231;SDS011;61835;50.196;6.454;2022-08-19T05:58:43;8.38;;;4.57;;
27231;SDS011;61835;50.196;6.454;2022-08-19T06:01:14;5.78;;;3.03;;
27231;SDS011;61835;50.196;6.454;2022-08-19T06:03:42;5.70;;;3.50;;
27231;SDS011;61835;50.196;6.454;2022-08-19T06:06:09;6.18;;;2.83;;
27231;SDS011;61835;50.196;6.454;2022-08-19T06:08:38;5.93;;;3.70;;
27231;SDS011;61835;50.196;6.454;2022-08-19T06:11:18;6.90;;;3.75;;
27231;SDS011;61835;50.196;6.454;2022-08-19T06:13:57;7.65;;;5.30;;
27231;SDS011;61835;50.196;6.454;2022-08-19T06:16:27;10.60;;;6.25;;
27231;SDS011;61835;50.196;6.454;2022-08-19T06:18:54;5.85;;;4.22;;
27231;SDS011;61835;50.196;6.454;2022-08-19T06:21:22;9.93;;;5.25;;
27231;SDS011;61835;50.196;6.454;2022-08-19T06:23:51;9.00;;;5.03;;
27231;SDS011;61835;50.196;6.454;2022-08-19T06:26:17;12.00;;;5.97;;
27231;SDS011;61835;50.196;6.454;2022-08-19T06:28:44;9.43;;;7.32;;
27231;SDS011;61835;50.196;6.454;2022-08-19T06:31:46;11.93;;;5.85;;
27231;SDS011;61835;50.196;6.454;2022-08-19T06:34:05;11.80;;;7.88;;
27231;SDS011;61835;50.196;6.454;2022-08-19T06:36:32;15.95;;;8.05;;
27231;SDS011;61835;50.196;6.454;2022-08-19T06:39:01;13.50;;;7.45;;
27231;SDS011;61835;50.196;6.454;2022-08-19T06:41:31;14.20;;;6.72;;
27231;SDS011;61835;50.196;6.454;2022-08-19T06:44:00;13.63;;;6.75;;
27231;SDS011;61835;50.196;6.454;2022-08-19T06:46:25;14.35;;;8.73;;
27231;SDS011;61835;50.196;6.454;2022-08-19T06:48:52;13.43;;;7.28;;
27231;SDS011;61835;50.196;6.454;2022-08-19T06:51:19;15.98;;;7.13;;
27231;SDS011;61835;50.196;6.454;2022-08-19T06:53:46;10.02;;;6.68;;
27231;SDS011;61835;50.196;6.454;2022-08-19T06:56:13;23.65;;;8.95;;
27231;SDS011;61835;50.196;6.454;2022-08-19T06:58:44;14.15;;;6.00;;
27231;SDS011;61835;50.196;6.454;2022-08-19T07:01:09;9.85;;;7.47;;
27231;SDS011;61835;50.196;6.454;2022-08-19T07:03:35;12.82;;;7.35;;
27231;SDS011;61835;50.196;6.454;2022-08-19T07:06:07;13.45;;;8.00;;
27231;SDS011;61835;50.196;6.454;2022-08-19T07:08:39;11.90;;;6.53;;
27231;SDS011;61835;50.196;6.454;2022-08-19T07:11:08;12.52;;;5.90;;
27231;SDS011;61835;50.196;6.454;2022-08-19T07:13:36;11.73;;;3.80;;
27231;SDS011;61835;50.196;6.454;2022-08-19T07:16:05;12.13;;;5.00;;
27231;SDS011;61835;50.196;6.454;2022-08-19T07:18:32;14.02;;;4.45;;
27231;SDS011;61835;50.196;6.454;2022-08-19T07:21:02;11.60;;;4.15;;
27231;SDS011;61835;50.196;6.454;2022-08-19T07:23:54;6.60;;;4.55;;
27231;SDS011;61835;50.196;6.454;2022-08-19T07:26:26;9.73;;;4.15;;
27231;SDS011;61835;50.196;6.454;2022-08-19T07:28:54;10.30;;;5.90;;
27231;SDS011;61835;50.196;6.454;2022-08-19T07:31:21;7.93;;;4.68;;
27231;SDS011;61835;50.196;6.454;2022-08-19T07:33:48;17.13;;;3.92;;
27231;SDS011;61835;50.196;6.454;2022-08-19T07:36:16;9.90;;;4.97;;
27231;SDS011;61835;50.196;6.454;2022-08-19T07:38:45;9.27;;;3.80;;
27231;SDS011;61835;50.196;6.454;2022-08-19T07:41:14;11.23;;;4.72;;
27231;SDS011;61835;50.196;6.454;2022-08-19T07:43:41;14.05;;;5.70;;
27231;SDS011;61835;50.196;6.454;2022-08-19T07:46:08;12.75;;;5.80;;
27231;SDS011;61835;50.196;6.454;2022-08-19T07:48:34;11.70;;;5.45;;
27231;SDS011;61835;50.196;6.454;2022-08-19T07:51:01;11.15;;;4.15;;
27231;SDS011;61835;50.196;6.454;2022-08-19T07:53:29;13.60;;;4.05;;
27231;SDS011;61835;50.196;6.454;2022-08-19T07:55:57;15.45;;;6.45;;
27231;SDS011;61835;50.196;6.454;2022-08-19T07:58:26;14.50;;;5.25;;
27231;SDS011;61835;50.196;6.454;2022-08-19T08:00:52;14.02;;;6.60;;
27231;SDS011;61835;50.196;6.454;2022-08-19T08:03:18;13.18;;;5.55;;
27231;SDS011;61835;50.196;6.454;2022-08-19T08:05:45;13.43;;;5.65;;
27231;SDS011;61835;50.196;6.454;2022-08-19T08:08:30;9.68;;;4.18;;
27231;SDS011;61835;50.196;6.454;2022-08-19T08:11:05;10.27;;;5.47;;
27231;SDS011;61835;50.196;6.454;2022-08-19T08:13:31;11.15;;;4.82;;
27231;SDS011;61835;50.196;6.454;2022-08-19T08:16:00;13.77;;;5.40;;
27231;SDS011;61835;50.196;6.454;2022-08-19T08:18:27;15.48;;;4.68;;
27231;SDS011;61835;50.196;6.454;2022-08-19T08:20:53;14.88;;;5.03;;
27231;SDS011;61835;50.196;6.454;2022-08-19T08:23:19;13.82;;;5.28;;
27231;SDS011;61835;50.196;6.454;2022-08-19T08:25:50;12.20;;;4.38;;
27231;SDS011;61835;50.196;6.454;2022-08-19T08:28:17;8.95;;;4.50;;
27231;SDS011;61835;50.196;6.454;2022-08-19T08:30:43;9.57;;;3.90;;
27231;SDS011;61835;50.196;6.454;2022-08-19T08:33:10;12.02;;;4.05;;
27231;SDS011;61835;50.196;6.454;2022-08-19T08:35:36;13.73;;;5.57;;
27231;SDS011;61835;50.196;6.454;2022-08-19T08:38:02;14.82;;;4.30;;
27231;SDS011;61835;50.196;6.454;2022-08-19T08:40:52;13.10;;;6.35;;
27231;SDS011;61835;50.196;6.454;2022-08-19T08:43:27;14.00;;;4.07;;
27231;SDS011;61835;50.196;6.454;2022-08-19T08:51:52;15.32;;;6.32;;
27231;SDS011;61835;50.196;6.454;2022-08-19T08:54:26;13.02;;;4.30;;
27231;SDS011;61835;50.196;6.454;2022-08-19T08:56:58;13.70;;;5.88;;
27231;SDS011;61835;50.196;6.454;2022-08-19T08:59:30;12.95;;;5.40;;
27231;SDS011;61835;50.196;6.454;2022-08-19T09:01:59;10.43;;;4.95;;
27231;SDS011;61835;50.196;6.454;2022-08-19T09:04:25;11.60;;;4.82;;
27231;SDS011;61835;50.196;6.454;2022-08-19T09:07:13;12.45;;;5.60;;
27231;SDS011;61835;50.196;6.454;2022-08-19T09:09:45;16.70;;;5.63;;
27231;SDS011;61835;50.196;6.454;2022-08-19T09:17:32;13.30;;;5.78;;
27231;SDS011;61835;50.196;6.454;2022-08-19T09:22:44;13.98;;;5.18;;
27231;SDS011;61835;50.196;6.454;2022-08-19T09:25:15;16.33;;;5.60;;
27231;SDS011;61835;50.196;6.454;2022-08-19T09:27:43;11.90;;;5.88;;
27231;SDS011;61835;50.196;6.454;2022-08-19T09:30:16;11.02;;;4.75;;
27231;SDS011;61835;50.196;6.454;2022-08-19T09:32:47;12.73;;;4.60;;
27231;SDS011;61835;50.196;6.454;2022-08-19T09:35:14;9.85;;;4.97;;
27231;SDS011;61835;50.196;6.454;2022-08-19T09:37:40;13.23;;;4.60;;
27231;SDS011;61835;50.196;6.454;2022-08-19T09:40:07;17.35;;;4.53;;
27231;SDS011;61835;50.196;6.454;2022-08-19T09:42:33;9.07;;;4.25;;
27231;SDS011;61835;50.196;6.454;2022-08-19T09:44:59;10.88;;;4.18;;
27231;SDS011;61835;50.196;6.454;2022-08-19T09:47:24;17.48;;;5.30;;
27231;SDS011;61835;50.196;6.454;2022-08-19T09:49:50;11.07;;;5.03;;
27231;SDS011;61835;50.196;6.454;2022-08-19T09:52:15;8.32;;;4.18;;
27231;SDS011;61835;50.196;6.454;2022-08-19T09:54:41;11.95;;;3.85;;
27231;SDS011;61835;50.196;6.454;2022-08-19T09:57:06;11.23;;;4.55;;
27231;SDS011;61835;50.196;6.454;2022-08-19T09:59:32;13.20;;;5.78;;
27231;SDS011;61835;50.196;6.454;2022-08-19T10:01:58;11.85;;;6.07;;
27231;SDS011;61835;50.196;6.454;2022-08-19T10:04:23;14.98;;;5.18;;
27231;SDS011;61835;50.196;6.454;2022-08-19T10:07:09;13.73;;;5.85;;
27231;SDS011;61835;50.196;6.454;2022-08-19T10:09:34;13.77;;;6.55;;
27231;SDS011;61835;50.196;6.454;2022-08-19T10:12:00;9.93;;;4.55;;
27231;SDS011;61835;50.196;6.454;2022-08-19T10:14:26;11.95;;;5.55;;
27231;SDS011;61835;50.196;6.454;2022-08-19T10:16:52;15.20;;;6.38;;
27231;SDS011;61835;50.196;6.454;2022-08-19T10:19:17;13.73;;;5.40;;
27231;SDS011;61835;50.196;6.454;2022-08-19T10:21:45;16.55;;;5.88;;
27231;SDS011;61835;50.196;6.454;2022-08-19T10:24:10;14.77;;;6.32;;
27231;SDS011;61835;50.196;6.454;2022-08-19T10:26:36;18.70;;;8.27;;
27231;SDS011;61835;50.196;6.454;2022-08-19T10:29:06;19.88;;;6.05;;
27231;SDS011;61835;50.196;6.454;2022-08-19T10:31:32;13.57;;;4.70;;
27231;SDS011;61835;50.196;6.454;2022-08-19T10:33:59;10.85;;;6.05;;
27231;SDS011;61835;50.196;6.454;2022-08-19T10:36:29;16.38;;;5.35;;
27231;SDS011;61835;50.196;6.454;2022-08-19T10:38:58;15.80;;;5.22;;
27231;SDS011;61835;50.196;6.454;2022-08-19T10:41:27;15.23;;;5.53;;
27231;SDS011;61835;50.196;6.454;2022-08-19T10:43:55;11.52;;;5.13;;
27231;SDS011;61835;50.196;6.454;2022-08-19T10:46:23;9.68;;;4.28;;
27231;SDS011;61835;50.196;6.454;2022-08-19T10:48:51;10.93;;;5.18;;
27231;SDS011;61835;50.196;6.454;2022-08-19T10:51:18;11.75;;;3.58;;
27231;SDS011;61835;50.196;6.454;2022-08-19T10:54:03;13.75;;;5.75;;
27231;SDS011;61835;50.196;6.454;2022-08-19T10:56:28;12.18;;;3.92;;
27231;SDS011;61835;50.196;6.454;2022-08-19T10:59:13;12.10;;;4.72;;
27231;SDS011;61835;50.196;6.454;2022-08-19T11:01:40;12.80;;;3.90;;
27231;SDS011;61835;50.196;6.454;2022-08-19T11:04:07;14.88;;;5.13;;
27231;SDS011;61835;50.196;6.454;2022-08-19T11:06:37;13.70;;;3.88;;
27231;SDS011;61835;50.196;6.454;2022-08-19T11:09:03;9.07;;;3.97;;
27231;SDS011;61835;50.196;6.454;2022-08-19T11:11:29;12.73;;;4.07;;
27231;SDS011;61835;50.196;6.454;2022-08-19T11:13:55;13.15;;;4.68;;
27231;SDS011;61835;50.196;6.454;2022-08-19T11:16:23;18.27;;;6.07;;
27231;SDS011;61835;50.196;6.454;2022-08-19T11:18:51;12.68;;;5.15;;
27231;SDS011;61835;50.196;6.454;2022-08-19T11:21:23;13.75;;;4.75;;
27231;SDS011;61835;50.196;6.454;2022-08-19T11:23:51;12.45;;;5.30;;
27231;SDS011;61835;50.196;6.454;2022-08-19T11:26:19;14.48;;;4.53;;
27231;SDS011;61835;50.196;6.454;2022-08-19T11:28:46;12.75;;;5.00;;
27231;SDS011;61835;50.196;6.454;2022-08-19T11:31:13;9.55;;;4.35;;
27231;SDS011;61835;50.196;6.454;2022-08-19T11:33:40;10.88;;;4.40;;
27231;SDS011;61835;50.196;6.454;2022-08-19T11:36:06;13.50;;;4.28;;
27231;SDS011;61835;50.196;6.454;2022-08-19T11:38:32;13.70;;;4.85;;
27231;SDS011;61835;50.196;6.454;2022-08-19T11:41:02;10.77;;;3.97;;
27231;SDS011;61835;50.196;6.454;2022-08-19T11:43:30;10.75;;;3.20;;
27231;SDS011;61835;50.196;6.454;2022-08-19T11:45:56;9.85;;;3.83;;
27231;SDS011;61835;50.196;6.454;2022-08-19T11:48:23;11.85;;;3.90;;
27231;SDS011;61835;50.196;6.454;2022-08-19T11:50:49;9.60;;;4.15;;
27231;SDS011;61835;50.196;6.454;2022-08-19T11:53:16;16.80;;;4.70;;
27231;SDS011;61835;50.196;6.454;2022-08-19T11:55:44;11.05;;;4.28;;
27231;SDS011;61835;50.196;6.454;2022-08-19T11:58:10;15.85;;;4.43;;
27231;SDS011;61835;50.196;6.454;2022-08-19T12:00:37;12.73;;;3.85;;
27231;SDS011;61835;50.196;6.454;2022-08-19T12:03:03;17.02;;;4.47;;
27231;SDS011;61835;50.196;6.454;2022-08-19T12:05:28;9.20;;;3.13;;
27231;SDS011;61835;50.196;6.454;2022-08-19T12:07:54;5.07;;;2.55;;
27231;SDS011;61835;50.196;6.454;2022-08-19T12:10:20;10.25;;;3.03;;
27231;SDS011;61835;50.196;6.454;2022-08-19T12:12:45;9.10;;;3.28;;
27231;SDS011;61835;50.196;6.454;2022-08-19T12:15:12;10.77;;;3.25;;
27231;SDS011;61835;50.196;6.454;2022-08-19T12:17:39;10.68;;;3.10;;
27231;SDS011;61835;50.196;6.454;2022-08-19T12:20:07;9.10;;;3.05;;
27231;SDS011;61835;50.196;6.454;2022-08-19T12:22:38;6.20;;;2.20;;
27231;SDS011;61835;50.196;6.454;2022-08-19T12:25:06;11.63;;;1.92;;
27231;SDS011;61835;50.196;6.454;2022-08-19T12:27:33;3.25;;;1.75;;
27231;SDS011;61835;50.196;6.454;2022-08-19T12:30:00;6.25;;;1.73;;
27231;SDS011;61835;50.196;6.454;2022-08-19T12:32:27;11.23;;;3.72;;
27231;SDS011;61835;50.196;6.454;2022-08-19T12:34:52;5.97;;;2.25;;
27231;SDS011;61835;50.196;6.454;2022-08-19T12:37:19;7.18;;;3.35;;
27231;SDS011;61835;50.196;6.454;2022-08-19T12:39:44;5.88;;;2.42;;
27231;SDS011;61835;50.196;6.454;2022-08-19T12:42:10;7.20;;;2.92;;
27231;SDS011;61835;50.196;6.454;2022-08-19T12:44:37;6.07;;;2.15;;
27231;SDS011;61835;50.196;6.454;2022-08-19T12:47:04;7.97;;;2.95;;
27231;SDS011;61835;50.196;6.454;2022-08-19T12:49:31;8.23;;;3.05;;
27231;SDS011;61835;50.196;6.454;2022-08-19T12:51:59;8.30;;;2.95;;
27231;SDS011;61835;50.196;6.454;2022-08-19T12:54:25;6.57;;;2.75;;
27231;SDS011;61835;50.196;6.454;2022-08-19T12:56:51;4.55;;;1.77;;
27231;SDS011;61835;50.196;6.454;2022-08-19T12:59:16;4.20;;;1.60;;
27231;SDS011;61835;50.196;6.454;2022-08-19T13:01:43;5.80;;;1.98;;
27231;SDS011;61835;50.196;6.454;2022-08-19T13:04:09;3.97;;;1.52;;
27231;SDS011;61835;50.196;6.454;2022-08-19T13:06:35;4.57;;;1.40;;
27231;SDS011;61835;50.196;6.454;2022-08-19T13:09:02;4.70;;;1.80;;
27231;SDS011;61835;50.196;6.454;2022-08-19T13:11:28;6.65;;;1.10;;
27231;SDS011;61835;50.196;6.454;2022-08-19T13:13:57;3.13;;;1.13;;
27231;SDS011;61835;50.196;6.454;2022-08-19T13:16:23;3.85;;;1.48;;
27231;SDS011;61835;50.196;6.454;2022-08-19T13:18:49;2.20;;;0.93;;
27231;SDS011;61835;50.196;6.454;2022-08-19T13:21:18;5.40;;;2.20;;
27231;SDS011;61835;50.196;6.454;2022-08-19T13:23:49;5.93;;;2.15;;
27231;SDS011;61835;50.196;6.454;2022-08-19T13:26:15;4.57;;;0.90;;
27231;SDS011;61835;50.196;6.454;2022-08-19T13:28:41;6.93;;;1.77;;
27231;SDS011;61835;50.196;6.454;2022-08-19T13:31:26;3.75;;;1.45;;
27231;SDS011;61835;50.196;6.454;2022-08-19T13:34:12;3.45;;;1.15;;
27231;SDS011;61835;50.196;6.454;2022-08-19T13:36:38;4.80;;;1.95;;
27231;SDS011;61835;50.196;6.454;2022-08-19T13:39:05;4.55;;;2.00;;
27231;SDS011;61835;50.196;6.454;2022-08-19T13:41:32;3.55;;;1.33;;
27231;SDS011;61835;50.196;6.454;2022-08-19T13:43:58;2.85;;;1.05;;
27231;SDS011;61835;50.196;6.454;2022-08-19T13:46:24;4.18;;;1.08;;
27231;SDS011;61835;50.196;6.454;2022-08-19T13:48:49;4.85;;;1.85;;
27231;SDS011;61835;50.196;6.454;2022-08-19T13:51:15;1.55;;;0.60;;
27231;SDS011;61835;50.196;6.454;2022-08-19T13:53:42;3.13;;;0.70;;
27231;SDS011;61835;50.196;6.454;2022-08-19T13:56:10;2.75;;;1.15;;
27231;SDS011;61835;50.196;6.454;2022-08-19T13:58:37;1.85;;;1.02;;
27231;SDS011;61835;50.196;6.454;2022-08-19T14:01:03;1.63;;;0.80;;
27231;SDS011;61835;50.196;6.454;2022-08-19T14:03:29;1.63;;;0.52;;
27231;SDS011;61835;50.196;6.454;2022-08-19T14:05:55;2.25;;;0.90;;
27231;SDS011;61835;50.196;6.454;2022-08-19T14:08:21;2.13;;;0.85;;
27231;SDS011;61835;50.196;6.454;2022-08-19T14:10:47;1.45;;;0.52;;
27231;SDS011;61835;50.196;6.454;2022-08-19T14:13:18;1.58;;;0.90;;
27231;SDS011;61835;50.196;6.454;2022-08-19T14:15:45;1.33;;;0.40;;
27231;SDS011;61835;50.196;6.454;2022-08-19T14:18:12;1.23;;;0.57;;
27231;SDS011;61835;50.196;6.454;2022-08-19T14:20:38;1.17;;;0.70;;
27231;SDS011;61835;50.196;6.454;2022-08-19T14:23:04;2.05;;;0.82;;
27231;SDS011;61835;50.196;6.454;2022-08-19T14:25:32;1.35;;;0.57;;
27231;SDS011;61835;50.196;6.454;2022-08-19T14:27:59;3.65;;;0.60;;
27231;SDS011;61835;50.196;6.454;2022-08-19T14:30:26;1.85;;;0.63;;
27231;SDS011;61835;50.196;6.454;2022-08-19T14:32:54;0.68;;;0.40;;
27231;SDS011;61835;50.196;6.454;2022-08-19T14:35:23;0.30;;;0.20;;
27231;SDS011;61835;50.196;6.454;2022-08-19T14:37:50;0.95;;;0.30;;
27231;SDS011;61835;50.196;6.454;2022-08-19T14:40:22;1.42;;;0.32;;
27231;SDS011;61835;50.196;6.454;2022-08-19T14:42:57;1.17;;;0.55;;
27231;SDS011;61835;50.196;6.454;2022-08-19T14:45:29;0.70;;;0.30;;
27231;SDS011;61835;50.196;6.454;2022-08-19T14:47:55;3.50;;;0.47;;
27231;SDS011;61835;50.196;6.454;2022-08-19T14:50:21;0.10;;;0.10;;
27231;SDS011;61835;50.196;6.454;2022-08-19T14:52:47;0.30;;;0.10;;
27231;SDS011;61835;50.196;6.454;2022-08-19T14:55:14;1.40;;;0.50;;
27231;SDS011;61835;50.196;6.454;2022-08-19T14:57:41;0.17;;;0.10;;
27231;SDS011;61835;50.196;6.454;2022-08-19T15:00:08;0.20;;;0.17;;
27231;SDS011;61835;50.196;6.454;2022-08-19T15:02:41;0.32;;;0.10;;
27231;SDS011;61835;50.196;6.454;2022-08-19T15:05:06;0.38;;;0.13;;
27231;SDS011;61835;50.196;6.454;2022-08-19T15:07:32;2.38;;;0.55;;